createdAt,value
2023-05-17T00:00:35.308Z,8.60
2023-05-17T00:03:04.855Z,8.60
2023-05-17T00:05:31.751Z,8.70
2023-05-17T00:07:58.687Z,8.60
2023-05-17T00:10:25.485Z,8.60
2023-05-17T00:12:52.197Z,8.60
2023-05-17T00:15:19.370Z,8.50
2023-05-17T00:17:46.149Z,8.40
2023-05-17T00:20:13.160Z,8.30
2023-05-17T00:22:40.969Z,8.30
2023-05-17T00:25:16.568Z,8.30
2023-05-17T00:27:43.656Z,8.20
2023-05-17T00:30:11.787Z,8.20
2023-05-17T00:32:38.574Z,8.10
2023-05-17T00:35:05.956Z,8.10
2023-05-17T00:37:32.670Z,7.90
2023-05-17T00:39:59.558Z,7.70
2023-05-17T00:42:26.278Z,7.60
2023-05-17T00:44:52.967Z,7.60
2023-05-17T00:47:19.757Z,7.50
2023-05-17T00:49:49.648Z,7.40
2023-05-17T00:52:16.510Z,7.30
2023-05-17T00:54:43.890Z,7.20
2023-05-17T00:57:11.076Z,7.20
2023-05-17T00:59:38.469Z,7.10
2023-05-17T01:02:05.903Z,7.00
2023-05-17T01:04:32.885Z,6.90
2023-05-17T01:07:00.028Z,6.80
2023-05-17T01:09:26.723Z,6.80
2023-05-17T01:11:53.575Z,6.70
2023-05-17T01:14:47.322Z,6.60
2023-05-17T01:17:56.296Z,6.50
2023-05-17T01:20:44.152Z,6.40
2023-05-17T01:23:31.456Z,6.30
2023-05-17T01:26:18.977Z,6.20
2023-05-17T01:28:49.148Z,6.10
2023-05-17T01:31:16.633Z,6.10
2023-05-17T01:33:44.032Z,6.00
2023-05-17T01:36:11.148Z,6.00
2023-05-17T01:38:37.954Z,6.00
2023-05-17T01:41:22.285Z,5.90
2023-05-17T01:44:11.013Z,5.90
2023-05-17T01:46:40.935Z,5.90
2023-05-17T01:49:31.060Z,5.80
2023-05-17T01:52:06.818Z,5.70
2023-05-17T01:54:43.475Z,5.70
2023-05-17T01:57:11.558Z,5.70
2023-05-17T01:59:39.152Z,5.70
2023-05-17T02:02:09.505Z,5.70
2023-05-17T02:04:36.798Z,5.70
2023-05-17T02:07:04.030Z,5.70
2023-05-17T02:09:31.209Z,5.70
2023-05-17T02:11:58.047Z,5.70
2023-05-17T02:14:24.879Z,5.60
2023-05-17T02:16:52.033Z,5.60
2023-05-17T02:19:18.878Z,5.60
2023-05-17T02:21:45.698Z,5.60
2023-05-17T02:24:12.372Z,5.70
2023-05-17T02:26:42.764Z,5.80
2023-05-17T02:29:11.187Z,5.80
2023-05-17T02:31:38.001Z,5.80
2023-05-17T02:34:04.859Z,5.80
2023-05-17T02:36:34.936Z,5.70
2023-05-17T02:39:01.985Z,5.70
2023-05-17T02:41:28.690Z,5.60
2023-05-17T02:43:55.368Z,5.50
2023-05-17T02:46:22.526Z,5.60
2023-05-17T02:48:49.224Z,5.50
2023-05-17T02:51:16.024Z,5.60
2023-05-17T02:53:42.747Z,5.60
2023-05-17T02:56:09.474Z,5.60
2023-05-17T02:58:38.801Z,5.60
2023-05-17T03:01:05.508Z,5.60
2023-05-17T03:03:32.561Z,5.60
2023-05-17T03:06:04.588Z,5.50
2023-05-17T03:08:31.660Z,5.60
2023-05-17T03:11:01.543Z,5.60
2023-05-17T03:13:28.219Z,5.60
2023-05-17T03:15:54.887Z,5.60
2023-05-17T03:18:21.661Z,5.50
2023-05-17T03:20:48.891Z,5.40
2023-05-17T03:23:15.624Z,5.30
2023-05-17T03:25:45.058Z,5.30
2023-05-17T03:28:11.800Z,5.20
2023-05-17T03:30:41.601Z,5.20
2023-05-17T03:33:08.414Z,5.30
2023-05-17T03:35:35.293Z,5.40
2023-05-17T03:38:02.029Z,5.40
2023-05-17T03:40:28.802Z,5.40
2023-05-17T03:42:55.470Z,5.40
2023-05-17T03:45:22.263Z,5.40
2023-05-17T03:47:49.019Z,5.30
2023-05-17T03:50:15.797Z,5.30
2023-05-17T03:52:42.620Z,5.30
2023-05-17T03:55:09.687Z,5.30
2023-05-17T03:57:36.388Z,5.40
2023-05-17T04:00:06.824Z,5.40
2023-05-17T04:02:33.729Z,5.40
2023-05-17T04:05:00.597Z,5.50
2023-05-17T04:07:27.487Z,5.50
2023-05-17T04:09:58.905Z,5.50
2023-05-17T04:12:26.401Z,5.50
2023-05-17T04:14:53.078Z,5.50
2023-05-17T04:17:19.846Z,5.60
2023-05-17T04:19:47.959Z,5.60
2023-05-17T04:22:14.758Z,5.60
2023-05-17T04:24:41.525Z,5.60
2023-05-17T04:27:08.179Z,5.70
2023-05-17T04:29:34.923Z,5.80
2023-05-17T04:32:01.904Z,5.80
2023-05-17T04:34:28.808Z,5.80
2023-05-17T04:36:55.498Z,5.90
2023-05-17T04:39:22.430Z,6.20
2023-05-17T04:41:54.982Z,6.70
2023-05-17T04:44:21.651Z,7.50
2023-05-17T04:46:48.379Z,8.20
2023-05-17T04:49:15.267Z,8.90
2023-05-17T04:51:42.071Z,9.40
2023-05-17T04:54:08.797Z,10.00
2023-05-17T04:56:36.396Z,10.50
2023-05-17T04:59:03.600Z,11.00
2023-05-17T05:01:31.000Z,11.50
2023-05-17T05:03:58.849Z,11.90
2023-05-17T05:06:25.788Z,12.00
2023-05-17T05:08:52.684Z,12.10
2023-05-17T05:11:19.745Z,12.10
2023-05-17T05:13:46.485Z,12.10
2023-05-17T05:16:13.202Z,12.20
2023-05-17T05:18:40.031Z,12.40
2023-05-17T05:21:06.910Z,12.50
2023-05-17T05:23:33.552Z,12.40
2023-05-17T05:26:00.618Z,12.40
2023-05-17T05:28:27.292Z,12.70
2023-05-17T05:31:06.687Z,12.80
2023-05-17T05:33:33.798Z,12.80
2023-05-17T05:36:00.721Z,12.90
2023-05-17T05:38:27.454Z,12.80
2023-05-17T05:40:54.253Z,13.00
2023-05-17T05:43:20.983Z,13.40
2023-05-17T05:45:50.852Z,13.60
2023-05-17T05:48:17.709Z,13.80
2023-05-17T05:50:44.612Z,14.10
2023-05-17T05:53:19.016Z,14.10
2023-05-17T05:55:48.727Z,14.20
2023-05-17T05:58:15.770Z,14.20
2023-05-17T06:00:44.592Z,14.30
2023-05-17T06:03:11.463Z,14.50
2023-05-17T06:05:39.197Z,14.90
2023-05-17T06:08:06.773Z,15.20
2023-05-17T06:10:33.809Z,15.30
2023-05-17T06:13:00.480Z,15.50
2023-05-17T06:15:30.559Z,15.50
2023-05-17T06:18:00.368Z,15.60
2023-05-17T06:20:27.492Z,15.60
2023-05-17T06:22:54.427Z,15.70
2023-05-17T06:25:27.091Z,16.00
2023-05-17T06:27:53.805Z,16.50
2023-05-17T06:30:20.670Z,17.00
2023-05-17T06:32:49.466Z,17.30
2023-05-17T06:35:18.396Z,17.30
2023-05-17T06:37:45.235Z,17.20
2023-05-17T06:40:17.366Z,17.10
2023-05-17T06:42:44.320Z,17.00
2023-05-17T06:45:11.979Z,16.60
2023-05-17T06:47:38.865Z,16.20
2023-05-17T06:50:06.916Z,15.50
2023-05-17T06:52:33.605Z,15.00
2023-05-17T06:55:00.479Z,14.40
2023-05-17T06:57:27.254Z,14.20
2023-05-17T07:00:01.076Z,13.90
2023-05-17T07:02:27.833Z,13.70
2023-05-17T07:04:54.902Z,13.40
2023-05-17T07:07:24.960Z,13.40
2023-05-17T07:09:51.681Z,13.30
2023-05-17T07:12:18.362Z,13.20
2023-05-17T07:14:45.027Z,13.00
2023-05-17T07:17:11.847Z,13.10
2023-05-17T07:19:38.780Z,13.20
2023-05-17T07:22:05.822Z,13.60
2023-05-17T07:24:35.915Z,13.70
2023-05-17T07:27:03.481Z,14.20
2023-05-17T07:29:30.587Z,15.50
2023-05-17T07:31:59.328Z,16.70
2023-05-17T07:34:26.047Z,17.30
2023-05-17T07:36:53.154Z,17.50
2023-05-17T07:39:19.828Z,17.50
2023-05-17T07:41:46.513Z,17.30
2023-05-17T07:44:13.249Z,17.20
2023-05-17T07:46:39.981Z,16.90
2023-05-17T07:49:07.006Z,16.40
2023-05-17T07:51:35.402Z,16.20
2023-05-17T07:54:03.231Z,15.70
2023-05-17T07:56:29.949Z,15.60
2023-05-17T07:58:57.753Z,15.50
2023-05-17T08:01:24.434Z,14.90
2023-05-17T08:03:51.326Z,14.50
2023-05-17T08:06:18.609Z,14.30
2023-05-17T08:08:45.815Z,14.30
2023-05-17T08:11:13.358Z,14.50
2023-05-17T08:13:40.094Z,14.60
2023-05-17T08:16:14.039Z,14.30
2023-05-17T08:18:43.261Z,14.00
2023-05-17T08:21:11.237Z,14.20
2023-05-17T08:23:38.341Z,14.50
2023-05-17T08:26:05.208Z,14.60
2023-05-17T08:28:31.908Z,14.70
2023-05-17T08:30:58.739Z,14.80
2023-05-17T08:33:26.278Z,14.70
2023-05-17T08:35:57.401Z,14.50
2023-05-17T08:38:24.127Z,14.40
2023-05-17T08:40:55.152Z,14.40
2023-05-17T08:43:25.831Z,14.50
2023-05-17T08:45:57.476Z,14.80
2023-05-17T08:48:26.329Z,14.70
2023-05-17T08:51:00.484Z,14.60
2023-05-17T08:53:27.839Z,14.70
2023-05-17T08:56:02.445Z,14.80
2023-05-17T08:58:52.427Z,15.00
2023-05-17T09:01:25.791Z,15.30
2023-05-17T09:03:56.494Z,15.60
2023-05-17T09:06:24.561Z,15.60
2023-05-17T09:08:53.106Z,15.30
2023-05-17T09:11:32.865Z,15.20
2023-05-17T09:14:04.793Z,15.20
2023-05-17T09:16:33.761Z,15.20
2023-05-17T09:19:08.946Z,15.60
2023-05-17T09:21:36.945Z,16.40
2023-05-17T09:24:08.006Z,16.80
2023-05-17T09:26:43.928Z,17.20
2023-05-17T09:29:15.889Z,17.60
2023-05-17T09:31:43.834Z,17.20
2023-05-17T09:34:10.826Z,16.90
2023-05-17T09:36:39.125Z,16.50
2023-05-17T09:39:10.590Z,16.10
2023-05-17T09:41:48.181Z,15.80
2023-05-17T09:44:15.498Z,15.60
2023-05-17T09:46:45.467Z,15.30
2023-05-17T09:49:13.106Z,15.50
2023-05-17T09:51:44.849Z,15.70
2023-05-17T09:54:12.180Z,16.00
2023-05-17T09:56:39.486Z,16.20
2023-05-17T09:59:12.907Z,16.30
2023-05-17T10:01:42.206Z,16.60
2023-05-17T10:04:13.241Z,16.80
2023-05-17T10:09:13.813Z,17.30
2023-05-17T10:11:43.928Z,17.40
2023-05-17T10:14:18.757Z,17.70
2023-05-17T10:16:46.376Z,18.10
2023-05-17T10:19:14.179Z,18.20
2023-05-17T10:21:45.124Z,18.80
2023-05-17T10:24:12.576Z,19.70
2023-05-17T10:26:40.083Z,20.20
2023-05-17T10:29:08.609Z,20.40
2023-05-17T10:31:36.472Z,21.10
2023-05-17T10:34:06.366Z,20.50
2023-05-17T10:36:34.205Z,20.10
2023-05-17T10:39:01.927Z,19.70
2023-05-17T10:41:41.602Z,18.80
2023-05-17T10:44:09.830Z,18.00
2023-05-17T10:46:37.124Z,17.90
2023-05-17T10:49:04.146Z,17.80
2023-05-17T10:51:33.225Z,17.80
2023-05-17T10:54:08.035Z,17.70
2023-05-17T10:56:35.481Z,18.00
2023-05-17T10:59:22.129Z,18.30
2023-05-17T11:02:04.939Z,19.10
2023-05-17T11:04:41.617Z,19.40
2023-05-17T11:07:17.725Z,19.10
2023-05-17T11:09:50.138Z,19.30
2023-05-17T11:12:27.468Z,20.00
2023-05-17T11:14:55.508Z,20.70
2023-05-17T11:17:28.720Z,21.40
2023-05-17T11:20:02.271Z,21.10
2023-05-17T11:22:37.249Z,20.70
2023-05-17T11:25:08.673Z,20.50
2023-05-17T11:27:53.998Z,20.40
2023-05-17T11:30:29.432Z,20.20
2023-05-17T11:33:01.589Z,20.50
2023-05-17T11:35:32.373Z,20.60
2023-05-17T11:38:19.174Z,20.30
2023-05-17T11:40:47.653Z,20.30
2023-05-17T11:43:16.490Z,20.20
2023-05-17T11:45:47.986Z,20.30
2023-05-17T11:48:16.371Z,20.60
2023-05-17T11:50:43.948Z,20.80
2023-05-17T11:53:11.875Z,20.90
2023-05-17T11:55:40.114Z,20.50
2023-05-17T11:58:09.440Z,20.00
2023-05-17T12:00:43.386Z,19.60
2023-05-17T12:03:29.615Z,19.00
2023-05-17T12:06:09.478Z,18.40
2023-05-17T12:08:43.445Z,18.50
2023-05-17T12:11:15.494Z,18.90
2023-05-17T12:13:42.885Z,18.60
2023-05-17T12:16:18.184Z,18.20
2023-05-17T12:18:49.684Z,18.10
2023-05-17T12:21:18.247Z,17.90
2023-05-17T12:23:48.878Z,18.00
2023-05-17T12:26:21.968Z,18.20
2023-05-17T12:28:59.709Z,17.80
2023-05-17T12:31:49.890Z,18.60
2023-05-17T12:34:18.163Z,19.90
2023-05-17T12:36:45.594Z,20.50
2023-05-17T12:39:13.737Z,21.50
2023-05-17T12:41:40.922Z,21.80
2023-05-17T12:44:15.381Z,22.10
2023-05-17T12:46:43.061Z,21.60
2023-05-17T12:49:11.864Z,21.00
2023-05-17T12:51:43.986Z,20.70
2023-05-17T12:54:12.432Z,19.90
2023-05-17T12:56:46.347Z,19.70
2023-05-17T12:59:18.297Z,19.30
2023-05-17T13:01:47.303Z,18.80
2023-05-17T13:04:15.437Z,18.10
2023-05-17T13:06:48.152Z,17.80
2023-05-17T13:09:16.102Z,17.80
2023-05-17T13:11:43.210Z,18.40
2023-05-17T13:14:12.666Z,19.10
2023-05-17T13:16:40.365Z,20.50
2023-05-17T13:19:16.363Z,21.80
2023-05-17T13:21:43.865Z,22.70
2023-05-17T13:24:11.091Z,23.20
2023-05-17T13:26:37.931Z,23.50
2023-05-17T13:29:04.615Z,23.10
2023-05-17T13:31:31.324Z,22.10
2023-05-17T13:33:58.159Z,22.70
2023-05-17T13:36:24.958Z,22.90
2023-05-17T13:38:51.885Z,22.70
2023-05-17T13:41:18.593Z,23.00
2023-05-17T13:43:45.423Z,23.20
2023-05-17T13:46:12.089Z,22.80
2023-05-17T13:48:40.372Z,21.90
2023-05-17T13:51:09.531Z,20.90
2023-05-17T13:53:39.181Z,19.70
2023-05-17T13:56:08.793Z,19.40
2023-05-17T13:58:35.471Z,19.80
2023-05-17T14:01:02.393Z,20.90
2023-05-17T14:03:29.317Z,22.10
2023-05-17T14:05:58.576Z,23.30
2023-05-17T14:08:25.635Z,23.90
2023-05-17T14:10:55.549Z,24.20
2023-05-17T14:13:22.259Z,24.20
2023-05-17T14:15:48.960Z,24.10
2023-05-17T14:18:15.974Z,23.50
2023-05-17T14:20:42.878Z,23.90
2023-05-17T14:23:15.794Z,24.40
2023-05-17T14:25:43.811Z,25.20
2023-05-17T14:28:12.215Z,25.20
2023-05-17T14:30:38.939Z,25.40
2023-05-17T14:33:05.726Z,25.20
2023-05-17T14:35:32.473Z,25.30
2023-05-17T14:38:01.948Z,25.30
2023-05-17T14:40:29.096Z,25.60
2023-05-17T14:42:58.914Z,26.20
2023-05-17T14:45:30.339Z,25.90
2023-05-17T14:47:57.198Z,25.60
2023-05-17T14:50:23.927Z,25.20
2023-05-17T14:52:50.688Z,24.90
2023-05-17T14:55:17.639Z,25.00
2023-05-17T14:57:44.546Z,24.40
2023-05-17T15:00:11.830Z,24.10
2023-05-17T15:02:38.681Z,24.30
2023-05-17T15:05:06.174Z,24.80
2023-05-17T15:07:33.883Z,25.10
2023-05-17T15:10:00.561Z,24.80
2023-05-17T15:12:28.685Z,23.90
2023-05-17T15:14:58.482Z,24.60
2023-05-17T15:17:26.574Z,24.40
2023-05-17T15:19:54.727Z,24.00
2023-05-17T15:22:22.390Z,24.20
2023-05-17T15:24:50.231Z,24.30
2023-05-17T15:27:18.221Z,24.20
2023-05-17T15:29:46.268Z,24.10
2023-05-17T15:32:13.732Z,24.70
2023-05-17T15:34:41.535Z,23.70
2023-05-17T15:37:09.215Z,23.10
2023-05-17T15:39:37.170Z,22.60
2023-05-17T15:42:05.237Z,22.70
2023-05-17T15:44:33.076Z,22.50
2023-05-17T15:47:02.938Z,22.20
2023-05-17T15:49:31.551Z,21.80
2023-05-17T15:52:00.833Z,21.50
2023-05-17T15:54:33.838Z,20.60
2023-05-17T15:57:11.589Z,20.00
2023-05-17T15:59:45.483Z,18.90
2023-05-17T16:02:20.248Z,18.50
2023-05-17T16:04:51.331Z,18.00
2023-05-17T16:07:18.237Z,17.30
2023-05-17T16:09:47.668Z,17.10
2023-05-17T16:12:27.486Z,17.20
2023-05-17T16:14:57.458Z,17.00
2023-05-17T16:17:24.446Z,17.20
2023-05-17T16:19:51.762Z,17.40
2023-05-17T16:22:18.756Z,17.40
2023-05-17T16:24:48.602Z,17.50
2023-05-17T16:27:18.225Z,17.30
2023-05-17T16:29:45.089Z,17.30
2023-05-17T16:32:12.195Z,17.40
2023-05-17T16:34:39.364Z,17.40
2023-05-17T16:37:06.192Z,17.20
2023-05-17T16:39:33.920Z,17.00
2023-05-17T16:42:04.455Z,16.90
2023-05-17T16:44:34.833Z,16.80
2023-05-17T16:47:01.797Z,16.80
2023-05-17T16:49:30.115Z,16.70
2023-05-17T16:52:09.782Z,16.60
2023-05-17T16:54:41.198Z,16.60
2023-05-17T16:57:08.625Z,16.50
2023-05-17T16:59:35.414Z,16.40
2023-05-17T17:02:05.465Z,16.40
2023-05-17T17:04:32.625Z,16.20
2023-05-17T17:06:59.543Z,16.10
2023-05-17T17:09:27.606Z,16.10
2023-05-17T17:11:57.319Z,16.00
2023-05-17T17:14:24.410Z,15.90
2023-05-17T17:16:51.076Z,15.80
2023-05-17T17:19:18.172Z,15.80
2023-05-17T17:21:45.054Z,15.80
2023-05-17T17:24:12.475Z,15.70
2023-05-17T17:26:39.255Z,15.70
2023-05-17T17:29:06.094Z,15.60
2023-05-17T17:31:32.776Z,15.50
2023-05-17T17:34:00.029Z,15.50
2023-05-17T17:36:27.057Z,15.50
2023-05-17T17:38:53.777Z,15.50
2023-05-17T17:41:21.184Z,15.40
2023-05-17T17:43:49.493Z,15.40
2023-05-17T17:46:21.316Z,15.30
2023-05-17T17:48:48.103Z,15.30
2023-05-17T17:51:17.001Z,15.10
2023-05-17T17:53:43.739Z,15.00
2023-05-17T17:56:10.803Z,14.80
2023-05-17T17:58:37.530Z,14.70
2023-05-17T18:01:04.497Z,14.60
2023-05-17T18:03:35.070Z,14.50
2023-05-17T18:06:02.021Z,14.40
2023-05-17T18:08:28.701Z,14.30
2023-05-17T18:10:55.419Z,14.20
2023-05-17T18:13:22.135Z,14.10
2023-05-17T18:15:49.014Z,14.00
2023-05-17T18:18:15.997Z,13.90
2023-05-17T18:20:42.684Z,13.80
2023-05-17T18:23:09.361Z,13.70
2023-05-17T18:25:36.718Z,13.60
2023-05-17T18:28:03.536Z,13.50
2023-05-17T18:30:30.591Z,13.40
2023-05-17T18:32:57.539Z,13.30
2023-05-17T18:35:24.351Z,13.20
2023-05-17T18:37:51.115Z,13.10
2023-05-17T18:40:18.021Z,13.10
2023-05-17T18:42:44.727Z,13.00
2023-05-17T18:45:11.519Z,12.90
2023-05-17T18:47:38.380Z,12.80
2023-05-17T18:50:05.589Z,12.70
2023-05-17T18:52:32.303Z,12.60
2023-05-17T18:54:58.997Z,12.40
2023-05-17T18:57:25.738Z,12.30
2023-05-17T18:59:52.455Z,12.20
2023-05-17T19:02:19.246Z,12.10
2023-05-17T19:04:46.186Z,12.00
2023-05-17T19:07:15.995Z,11.90
2023-05-17T19:09:42.908Z,11.80
2023-05-17T19:12:09.708Z,11.70
2023-05-17T19:14:38.379Z,11.60
2023-05-17T19:17:05.373Z,11.60
2023-05-17T19:19:32.119Z,11.50
2023-05-17T19:22:00.521Z,11.40
2023-05-17T19:24:28.025Z,11.30
2023-05-17T19:26:54.717Z,11.20
2023-05-17T19:29:22.235Z,11.20
2023-05-17T19:31:49.004Z,11.10
2023-05-17T19:34:18.348Z,11.00
2023-05-17T19:36:45.037Z,10.90
2023-05-17T19:39:11.778Z,10.90
2023-05-17T19:41:38.563Z,10.80
2023-05-17T19:44:06.149Z,10.70
2023-05-17T19:46:32.860Z,10.70
2023-05-17T19:48:59.699Z,10.70
2023-05-17T19:51:26.460Z,10.60
2023-05-17T19:53:54.224Z,10.50
2023-05-17T19:56:23.391Z,10.40
2023-05-17T19:58:51.180Z,10.30
2023-05-17T20:01:18.115Z,10.10
2023-05-17T20:03:45.108Z,10.10
2023-05-17T20:06:15.602Z,10.00
2023-05-17T20:08:42.702Z,9.90
2023-05-17T20:11:09.778Z,9.90
2023-05-17T20:13:40.328Z,9.80
2023-05-17T20:16:16.734Z,9.70
2023-05-17T20:18:44.146Z,9.60
2023-05-17T20:21:14.998Z,9.40
2023-05-17T20:23:41.759Z,9.30
2023-05-17T20:26:08.529Z,9.30
2023-05-17T20:28:35.288Z,9.20
2023-05-17T20:31:02.742Z,9.20
2023-05-17T20:33:29.377Z,9.10
2023-05-17T20:35:56.056Z,9.00
2023-05-17T20:38:22.814Z,9.00
2023-05-17T20:40:52.099Z,9.10
2023-05-17T20:43:20.143Z,9.20
2023-05-17T20:45:47.037Z,9.30
2023-05-17T20:48:13.797Z,9.40
2023-05-17T20:50:40.567Z,9.40
2023-05-17T20:53:07.386Z,9.60
2023-05-17T20:55:34.089Z,9.60
2023-05-17T20:58:01.664Z,9.60
2023-05-17T21:00:35.874Z,9.60
2023-05-17T21:03:02.683Z,9.50
2023-05-17T21:05:35.858Z,9.50
2023-05-17T21:08:03.101Z,9.40
2023-05-17T21:10:30.109Z,9.40
2023-05-17T21:13:00.475Z,9.40
2023-05-17T21:15:30.325Z,9.30
2023-05-17T21:17:57.392Z,9.30
2023-05-17T21:20:24.933Z,9.20
2023-05-17T21:22:51.704Z,9.10
2023-05-17T21:25:18.426Z,9.00
2023-05-17T21:27:47.948Z,8.90
2023-05-17T21:30:14.797Z,8.80
2023-05-17T21:32:47.154Z,8.80
2023-05-17T21:35:15.985Z,8.70
2023-05-17T21:37:42.729Z,8.70
2023-05-17T21:40:10.083Z,8.80
2023-05-17T21:42:39.937Z,8.80
2023-05-17T21:45:07.223Z,8.80
2023-05-17T21:47:35.962Z,8.90
2023-05-17T21:50:03.672Z,8.90
2023-05-17T21:52:30.781Z,8.90
2023-05-17T21:55:00.635Z,8.90
2023-05-17T21:57:27.387Z,8.80
2023-05-17T21:59:54.213Z,8.80
2023-05-17T22:02:23.622Z,8.70
2023-05-17T22:04:50.539Z,8.70
2023-05-17T22:07:17.593Z,8.70
2023-05-17T22:09:47.668Z,8.70
2023-05-17T22:12:14.818Z,8.70
2023-05-17T22:14:44.497Z,8.60
2023-05-17T22:17:11.212Z,8.60
2023-05-17T22:19:40.732Z,8.60
2023-05-17T22:22:09.186Z,8.60
2023-05-17T22:24:36.079Z,8.60
2023-05-17T22:27:03.707Z,8.50
2023-05-17T22:29:30.479Z,8.40
2023-05-17T22:31:57.215Z,8.40
2023-05-17T22:34:23.976Z,8.40
2023-05-17T22:36:50.647Z,8.40
2023-05-17T22:39:17.365Z,8.50
2023-05-17T22:41:44.307Z,8.50
2023-05-17T22:44:11.162Z,8.50
2023-05-17T22:46:38.643Z,8.50
2023-05-17T22:49:05.398Z,8.40
2023-05-17T22:51:35.301Z,8.30
2023-05-17T22:54:03.206Z,8.30
2023-05-17T22:56:30.201Z,8.20
2023-05-17T22:58:59.081Z,8.30
2023-05-17T23:01:26.431Z,8.20
2023-05-17T23:03:56.102Z,8.20
2023-05-17T23:06:23.727Z,8.10
2023-05-17T23:08:52.473Z,8.00
2023-05-17T23:11:22.712Z,7.90
2023-05-17T23:13:49.388Z,7.90
2023-05-17T23:16:18.730Z,7.80
2023-05-17T23:18:48.574Z,7.80
2023-05-17T23:21:15.301Z,7.80
2023-05-17T23:23:42.008Z,7.70
2023-05-17T23:26:09.227Z,7.60
2023-05-17T23:28:37.683Z,7.60
2023-05-17T23:31:07.792Z,7.60
2023-05-17T23:33:34.507Z,7.50
2023-05-17T23:36:01.297Z,7.50
2023-05-17T23:38:28.132Z,7.50
2023-05-17T23:40:54.970Z,7.40
2023-05-17T23:43:21.665Z,7.30
2023-05-17T23:45:48.437Z,7.30
2023-05-17T23:48:16.160Z,7.20
2023-05-17T23:50:45.024Z,7.10
2023-05-17T23:53:11.803Z,7.10
2023-05-17T23:55:38.755Z,7.10
2023-05-17T23:58:05.566Z,7.10
